Terminal Aerodrome Forecast
Issued by NWS

Home | Current Version | Previous Version | Text Only | Print | Product List | Glossary On
Versions: 1 2 3 4 5 6 7 8 9 10 11 12 13 14
000
FTUS45 KVEF 261726
TAFVGT
TAF
KVGT 261726Z 2618/2718 34010KT P6SM FEW120
     FM262100 28010KT P6SM VCSH SCT100
     FM270300 34008KT P6SM FEW120
     FM271600 10005KT P6SM FEW120=

USA.gov is the U.S. government's official web portal to all federal, state and local government web resources and services.